Lady Nur — 3FFE2 — position and weather

sailwx.info

Track history (hours):
 
Tides and Currents Weather Stations Pressure Air Temp Water Temp Dewpoint Dewpoint Depression Visibility Wind Speed Wind Dir Waves Ship Positions

Lady Nur

Last reported at 2014-Oct-31 12:33 UTC. Time now 2014-Oct-31 12:58 UTC.
Position N 40°44' E 029°23'.

Length 82 m; draft 5 m.

Type: Cargo ship. MMSI: 373237000.

Date/timePositionNaut miles runAvg speedWind from/ knotsBaromVisibWave heightAir tempDewpointWater temp
2014-Oct-31 12:33N 40°44' E 029°23'9 8.8
2014-Oct-31 11:34N 40°44' E 029°12'9 8.9
2014-Oct-31 10:33N 40°43' E 029°00'168 6.2
2014-Oct-30 07:22N 40°04' E 025°25'6 6.4
2014-Oct-30 06:25N 40°04' E 025°17'17 8.0
2014-Oct-30 04:14N 40°02' E 024°54'6 8.5
2014-Oct-30 03:32N 40°01' E 024°46'24 8.0
2014-Oct-30 00:33N 39°55' E 024°16'8 7.7
2014-Oct-29 23:33N 39°54' E 024°06'  
2014-Oct-24 17:14N 38°13' E 015°36'16 5.3
2014-Oct-24 14:13N 38°20' E 015°18'5 7.7
2014-Oct-24 13:34N 38°15' E 015°17'3 2.7
2014-Oct-24 12:28N 38°13' E 015°15'0 0.0
2014-Oct-24 11:28N 38°13' E 015°15'0 0.0
2014-Oct-24 10:28N 38°13' E 015°15'0 0.0
2014-Oct-24 09:28N 38°13' E 015°15'0 0.0
2014-Oct-24 08:28N 38°13' E 015°15'0 0.0
2014-Oct-24 07:28N 38°13' E 015°15'0 0.0
2014-Oct-24 06:28N 38°13' E 015°15'0 0.0
2014-Oct-23 17:28N 38°13' E 015°15'0 0.0
2014-Oct-23 16:34N 38°13' E 015°15'0 0.0
2014-Oct-23 15:27N 38°13' E 015°15'0 0.0
2014-Oct-23 14:33N 38°13' E 015°15'0 0.0
2014-Oct-23 13:33N 38°13' E 015°15'0 0.0
2014-Oct-23 12:33N 38°13' E 015°15'0 0.0
2014-Oct-23 11:33N 38°13' E 015°15'0 0.0
2014-Oct-23 10:33N 38°13' E 015°15'0 0.0
2014-Oct-23 09:33N 38°13' E 015°15'0 0.0
2014-Oct-23 08:33N 38°13' E 015°15'0 0.0
2014-Oct-23 07:33N 38°13' E 015°15'0 0.0
2014-Oct-23 06:33N 38°13' E 015°15'0 0.0
2014-Oct-23 05:33N 38°13' E 015°15'3 0.3
2014-Oct-22 18:12N 38°13' E 015°19'0 0.0
2014-Oct-22 17:30N 38°13' E 015°19'0 0.1
2014-Oct-22 16:29N 38°13' E 015°19'0 0.1
2014-Oct-22 15:28N 38°13' E 015°19'0 0.0
2014-Oct-22 14:28N 38°13' E 015°19'0 0.0
2014-Oct-22 13:28N 38°13' E 015°19'0 0.0
2014-Oct-22 12:28N 38°13' E 015°19'0 0.0
2014-Oct-22 11:28N 38°13' E 015°19'0 0.0
2014-Oct-22 10:28N 38°13' E 015°19'0 0.1
2014-Oct-22 09:28N 38°13' E 015°19'3 2.7
2014-Oct-22 08:29N 38°15' E 015°16'10 8.8
2014-Oct-22 07:25N 38°23' E 015°09'  
Track history (hours):
 
Tides and Currents Weather Stations Pressure Air Temp Water Temp Dewpoint Dewpoint Depression Visibility Wind Speed Wind Dir Waves Ship Positions

Lady Nur

Last reported at 2014-Oct-31 12:33 UTC. Time now 2014-Oct-31 12:58 UTC.
Position N 40°44' E 029°23'.

Length 82 m; draft 5 m.

Type: Cargo ship. MMSI: 373237000.

Date/timePositionNaut miles runAvg speedWind from/ knotsBaromVisibWave heightAir tempDewpointWater temp
2014-Oct-31 12:33N 40°44' E 029°23'9 8.8
2014-Oct-31 11:34N 40°44' E 029°12'9 8.9
2014-Oct-31 10:33N 40°43' E 029°00'168 6.2
2014-Oct-30 07:22N 40°04' E 025°25'6 6.4
2014-Oct-30 06:25N 40°04' E 025°17'17 8.0
2014-Oct-30 04:14N 40°02' E 024°54'6 8.5
2014-Oct-30 03:32N 40°01' E 024°46'24 8.0
2014-Oct-30 00:33N 39°55' E 024°16'8 7.7
2014-Oct-29 23:33N 39°54' E 024°06'  
2014-Oct-24 17:14N 38°13' E 015°36'16 5.3
2014-Oct-24 14:13N 38°20' E 015°18'5 7.7
2014-Oct-24 13:34N 38°15' E 015°17'3 2.7
2014-Oct-24 12:28N 38°13' E 015°15'0 0.0
2014-Oct-24 11:28N 38°13' E 015°15'0 0.0
2014-Oct-24 10:28N 38°13' E 015°15'0 0.0
2014-Oct-24 09:28N 38°13' E 015°15'0 0.0
2014-Oct-24 08:28N 38°13' E 015°15'0 0.0
2014-Oct-24 07:28N 38°13' E 015°15'0 0.0
2014-Oct-24 06:28N 38°13' E 015°15'0 0.0
2014-Oct-23 17:28N 38°13' E 015°15'0 0.0
2014-Oct-23 16:34N 38°13' E 015°15'0 0.0
2014-Oct-23 15:27N 38°13' E 015°15'0 0.0
2014-Oct-23 14:33N 38°13' E 015°15'0 0.0
2014-Oct-23 13:33N 38°13' E 015°15'0 0.0
2014-Oct-23 12:33N 38°13' E 015°15'0 0.0
2014-Oct-23 11:33N 38°13' E 015°15'0 0.0
2014-Oct-23 10:33N 38°13' E 015°15'0 0.0
2014-Oct-23 09:33N 38°13' E 015°15'0 0.0
2014-Oct-23 08:33N 38°13' E 015°15'0 0.0
2014-Oct-23 07:33N 38°13' E 015°15'0 0.0
2014-Oct-23 06:33N 38°13' E 015°15'0 0.0
2014-Oct-23 05:33N 38°13' E 015°15'3 0.3
2014-Oct-22 18:12N 38°13' E 015°19'0 0.0
2014-Oct-22 17:30N 38°13' E 015°19'0 0.1
2014-Oct-22 16:29N 38°13' E 015°19'0 0.1
2014-Oct-22 15:28N 38°13' E 015°19'0 0.0
2014-Oct-22 14:28N 38°13' E 015°19'0 0.0
2014-Oct-22 13:28N 38°13' E 015°19'0 0.0
2014-Oct-22 12:28N 38°13' E 015°19'0 0.0
2014-Oct-22 11:28N 38°13' E 015°19'0 0.0
2014-Oct-22 10:28N 38°13' E 015°19'0 0.1
2014-Oct-22 09:28N 38°13' E 015°19'3 2.7
2014-Oct-22 08:29N 38°15' E 015°16'10 8.8
2014-Oct-22 07:25N 38°23' E 015°09'  

Dump ship's entire track history